Time;durP1;ratioP1;P1;durP2;ratioP2;P2;SDS_P1;SDS_P2;PMS_P1;PMS_P2;Temp;Humidity;BMP_temperature;BMP_pressure;BME280_temperature;BME280_humidity;BME280_pressure;Samples;Min_cycle;Max_cycle;Signal;HPM_P1;HPM_P2
2022/11/28 15:15:13;;;;;;;1999.90;999.90;;;7.50;99.90;;;;;;5116449;27;20364;-81
2022/11/28 15:17:42;;;;;;;1999.90;999.90;;;7.50;99.90;;;;;;5106373;28;20044;-79
2022/11/28 15:20:21;;;;;;;1999.90;999.90;;;7.40;99.90;;;;;;5102353;28;20028;-84
2022/11/28 15:22:48;;;;;;;1999.90;999.90;;;7.40;99.90;;;;;;5079166;28;20029;-81
2022/11/28 15:25:25;;;;;;;1999.90;999.90;;;7.40;99.90;;;;;;5080382;28;20029;-81
2022/11/28 15:27:52;;;;;;;1999.90;999.90;;;7.30;99.90;;;;;;5082995;28;20056;-81
2022/11/28 15:30:25;;;;;;;1999.90;999.90;;;7.30;99.90;;;;;;5082914;28;20037;-81
2022/11/28 15:32:58;;;;;;;1999.90;999.90;;;7.30;99.90;;;;;;5075178;28;20841;-80
2022/11/28 15:35:23;;;;;;;1999.90;999.90;;;7.30;99.90;;;;;;5084996;28;20682;-80
2022/11/28 15:37:53;;;;;;;1999.90;999.90;;;7.30;99.90;;;;;;5084734;28;20040;-83
2022/11/28 15:42:55;;;;;;;1999.90;999.90;;;6.90;99.90;;;;;;5143476;27;20537;-84
2022/11/28 15:45:25;;;;;;;1999.90;999.90;;;7.20;99.90;;;;;;5141777;27;20039;-82
2022/11/28 15:47:52;;;;;;;1999.90;999.90;;;7.20;99.90;;;;;;5141621;27;20081;-81
2022/11/28 15:50:24;;;;;;;1999.90;999.90;;;7.10;99.90;;;;;;5135669;27;20020;-81
2022/11/28 15:53:01;;;;;;;1999.90;999.90;;;7.20;99.90;;;;;;5152292;27;20031;-80
2022/11/28 15:55:29;;;;;;;1999.90;999.90;;;7.10;99.90;;;;;;5148154;27;20050;-81
2022/11/28 15:58:22;;;;;;;1999.90;999.90;;;7.10;99.90;;;;;;5146169;27;20039;-79
2022/11/28 16:00:54;;;;;;;1999.90;999.90;;;7.10;99.90;;;;;;5136214;27;20039;-80
2022/11/28 16:03:24;;;;;;;1999.90;999.90;;;7.10;99.90;;;;;;5136295;27;20031;-78
2022/11/28 16:05:53;;;;;;;1999.90;999.90;;;7.10;99.90;;;;;;5135753;27;20492;-79
2022/11/28 16:08:31;;;;;;;1999.90;999.90;;;7.10;99.90;;;;;;5135461;27;20031;-81
2022/11/28 16:10:59;;;;;;;1999.90;999.90;;;7.10;99.90;;;;;;5136212;27;20791;-80
2022/11/28 16:13:26;;;;;;;1999.90;999.90;;;7.10;99.90;;;;;;5134562;27;20043;-79
2022/11/28 16:15:55;;;;;;;1999.90;999.90;;;7.10;99.90;;;;;;5135468;27;20032;-79
2022/11/28 16:18:21;;;;;;;1999.90;999.90;;;7.10;99.90;;;;;;5149614;27;20114;-78
2022/11/28 16:20:47;;;;;;;1999.90;999.90;;;7.10;99.90;;;;;;5154978;27;20035;-76
2022/11/28 16:23:26;;;;;;;1999.90;999.90;;;7.10;99.90;;;;;;5158508;27;20080;-78
2022/11/28 16:26:06;;;;;;;1999.90;999.90;;;7.10;99.90;;;;;;5146358;27;20086;-80
2022/11/28 16:28:38;;;;;;;1999.90;999.90;;;7.00;99.90;;;;;;5140101;27;20807;-81
2022/11/28 16:31:11;;;;;;;1999.90;999.90;;;7.00;99.90;;;;;;5140564;27;20144;-79
2022/11/28 16:33:40;;;;;;;1999.90;999.90;;;7.00;99.90;;;;;;5141554;27;20035;-80
2022/11/28 16:36:18;;;;;;;1999.90;999.90;;;6.90;99.90;;;;;;5132753;27;20397;-79
2022/11/28 16:38:45;;;;;;;1999.90;999.90;;;6.90;99.90;;;;;;5135108;27;20028;-81
2022/11/28 16:41:21;;;;;;;1999.90;999.90;;;6.90;99.90;;;;;;5146793;27;20048;-82
2022/11/28 16:43:51;;;;;;;1999.90;999.90;;;6.90;99.90;;;;;;5144364;27;20023;-82
2022/11/28 16:46:20;;;;;;;1999.90;999.90;;;6.90;99.90;;;;;;5139589;27;20528;-79
2022/11/28 16:48:55;;;;;;;1999.90;999.90;;;6.90;99.90;;;;;;5135114;27;20046;-81
2022/11/28 16:51:20;;;;;;;1999.90;999.90;;;6.90;99.90;;;;;;5143532;27;20565;-80
2022/11/28 16:53:58;;;;;;;1999.90;999.90;;;6.90;99.90;;;;;;5128557;27;20111;-81
2022/11/28 16:56:28;;;;;;;1999.90;999.90;;;6.90;99.90;;;;;;5120837;27;20043;-82
2022/11/28 16:59:15;;;;;;;1999.90;999.90;;;6.90;99.90;;;;;;5125126;27;20040;-82
2022/11/28 17:02:02;;;;;;;1999.90;999.90;;;6.90;99.90;;;;;;5131052;27;20036;-81
2022/11/28 17:04:29;;;;;;;1999.90;999.90;;;6.80;99.90;;;;;;5137945;27;20032;-81
2022/11/28 17:07:00;;;;;;;1999.90;999.90;;;6.80;99.90;;;;;;5109676;27;20792;-81
2022/11/28 17:09:26;;;;;;;1999.90;999.90;;;6.80;99.90;;;;;;5136927;27;20028;-82
2022/11/28 17:11:56;;;;;;;1999.90;999.90;;;6.80;99.90;;;;;;5133992;27;20043;-81
2022/11/28 17:14:22;;;;;;;1999.90;999.90;;;6.80;99.90;;;;;;5128239;27;20109;-80
2022/11/28 17:16:47;;;;;;;1999.90;999.90;;;6.80;99.90;;;;;;5135063;27;20163;-82
2022/11/28 17:19:13;;;;;;;1999.90;999.90;;;6.80;99.90;;;;;;5124297;27;20031;-81
2022/11/28 17:21:42;;;;;;;1999.90;999.90;;;6.80;99.90;;;;;;5127765;27;20050;-79
2022/11/28 17:24:16;;;;;;;1999.90;999.90;;;6.80;99.90;;;;;;5124310;27;20526;-79
2022/11/28 17:26:41;;;;;;;1999.90;999.90;;;6.70;99.90;;;;;;5137656;27;20036;-78
2022/11/28 17:29:12;;;;;;;1999.90;999.90;;;6.80;99.90;;;;;;5133020;27;20032;-79
2022/11/28 17:31:40;;;;;;;1999.90;999.90;;;6.70;99.90;;;;;;5128490;27;20032;-80
2022/11/28 17:34:13;;;;;;;1999.90;999.90;;;6.70;99.90;;;;;;5137266;27;20401;-78
2022/11/28 17:36:39;;;;;;;1999.90;999.90;;;6.70;99.90;;;;;;5139678;27;20081;-79
2022/11/28 17:39:05;;;;;;;1999.90;999.90;;;6.70;99.90;;;;;;5135127;27;20028;-78
2022/11/28 17:41:30;;;;;;;1999.90;999.90;;;6.70;99.90;;;;;;5125501;27;20044;-79
2022/11/28 17:43:56;;;;;;;1999.90;999.90;;;6.70;99.90;;;;;;5129264;27;20373;-80
2022/11/28 17:46:21;;;;;;;1999.90;999.90;;;6.70;99.90;;;;;;5136897;27;20031;-80
2022/11/28 17:48:47;;;;;;;1999.90;999.90;;;6.70;99.90;;;;;;5136958;27;20038;-80
2022/11/28 17:51:12;;;;;;;1999.90;999.90;;;6.70;99.90;;;;;;5136016;27;20047;-83
2022/11/28 17:53:38;;;;;;;1999.90;999.90;;;6.80;99.90;;;;;;5126206;27;20020;-81
2022/11/28 17:56:04;;;;;;;1999.90;999.90;;;6.80;99.90;;;;;;5115720;27;20088;-81
2022/11/28 17:58:29;;;;;;;1999.90;999.90;;;6.70;99.90;;;;;;5133263;27;20032;-82
2022/11/28 18:00:55;;;;;;;1999.90;999.90;;;6.70;99.90;;;;;;5118971;27;20489;-83
2022/11/28 18:03:21;;;;;;;1999.90;999.90;;;6.70;99.90;;;;;;5137165;27;20051;-81
2022/11/28 18:05:48;;;;;;;1999.90;999.90;;;6.70;99.90;;;;;;5136147;27;20484;-81
2022/11/28 18:08:17;;;;;;;1999.90;999.90;;;6.70;99.90;;;;;;5128055;27;20028;-82
2022/11/28 18:10:43;;;;;;;1999.90;999.90;;;6.60;99.90;;;;;;5116753;27;20048;-84
2022/11/28 18:13:09;;;;;;;1999.90;999.90;;;6.70;99.90;;;;;;5116890;27;20029;-81
2022/11/28 18:15:36;;;;;;;1999.90;999.90;;;6.70;99.90;;;;;;5118323;27;20032;-80
2022/11/28 18:18:03;;;;;;;1999.90;999.90;;;6.70;99.90;;;;;;5118745;27;20492;-79
2022/11/28 18:20:30;;;;;;;1999.90;999.90;;;6.70;99.90;;;;;;5117992;27;20028;-79
2022/11/28 18:22:57;;;;;;;1999.90;999.90;;;6.70;99.90;;;;;;5118443;27;20040;-80
2022/11/28 18:25:23;;;;;;;1999.90;999.90;;;6.60;99.90;;;;;;5119309;27;20024;-80
2022/11/28 18:27:50;;;;;;;1999.90;999.90;;;6.60;99.90;;;;;;5119240;27;20076;-83
2022/11/28 18:30:16;;;;;;;1999.90;999.90;;;6.60;99.90;;;;;;5131214;27;20091;-77
2022/11/28 18:32:41;;;;;;;1999.90;999.90;;;6.60;99.90;;;;;;5118340;27;20107;-85
2022/11/28 18:35:08;;;;;;;1999.90;999.90;;;6.60;99.90;;;;;;5122699;27;20035;-82
2022/11/28 18:37:34;;;;;;;1999.90;999.90;;;6.60;99.90;;;;;;5127599;27;20061;-78
2022/11/28 18:40:00;;;;;;;1999.90;999.90;;;6.60;99.90;;;;;;5128059;27;20200;-78
2022/11/28 18:42:25;;;;;;;1999.90;999.90;;;6.60;99.90;;;;;;5121281;27;20225;-77
2022/11/28 18:44:51;;;;;;;1999.90;999.90;;;6.70;99.90;;;;;;5119979;27;20032;-76
2022/11/28 18:47:17;;;;;;;1999.90;999.90;;;6.70;99.90;;;;;;5131005;27;20064;-76
2022/11/28 18:49:42;;;;;;;1999.90;999.90;;;6.70;99.90;;;;;;5127038;27;20035;-78
2022/11/28 18:52:08;;;;;;;1999.90;999.90;;;6.60;99.90;;;;;;5121924;27;20032;-77
2022/11/28 18:54:34;;;;;;;1999.90;999.90;;;6.70;99.90;;;;;;5129688;27;20481;-76
2022/11/28 18:57:00;;;;;;;1999.90;999.90;;;6.60;99.90;;;;;;5115855;27;20027;-78
2022/11/28 18:59:25;;;;;;;1999.90;999.90;;;6.70;99.90;;;;;;5119396;27;20038;-77
2022/11/28 19:01:51;;;;;;;1999.90;999.90;;;6.70;99.90;;;;;;5114755;28;20044;-80
2022/11/28 19:04:17;;;;;;;1999.90;999.90;;;6.60;99.90;;;;;;5132622;27;20109;-82
2022/11/28 19:06:43;;;;;;;1999.90;999.90;;;6.60;99.90;;;;;;5135069;27;20032;-81
2022/11/28 19:09:12;;;;;;;1999.90;999.90;;;6.60;99.90;;;;;;5135854;27;20533;-78
2022/11/28 19:11:38;;;;;;;1999.90;999.90;;;6.60;99.90;;;;;;5135044;27;20036;-78
2022/11/28 19:14:05;;;;;;;1999.90;999.90;;;6.60;99.90;;;;;;5135254;27;20046;-77
2022/11/28 19:16:33;;;;;;;1999.90;999.90;;;6.60;99.90;;;;;;5136483;27;20031;-80
2022/11/28 19:19:00;;;;;;;1999.90;999.90;;;6.60;99.90;;;;;;5136770;27;20035;-79
2022/11/28 19:21:31;;;;;;;1999.90;999.90;;;6.60;99.90;;;;;;5134604;27;20036;-78
2022/11/28 19:23:58;;;;;;;1999.90;999.90;;;6.60;99.90;;;;;;5135122;27;20743;-80
2022/11/28 19:26:26;;;;;;;1999.90;999.90;;;6.60;99.90;;;;;;5119045;27;20032;-80
2022/11/28 19:28:52;;;;;;;1999.90;999.90;;;6.60;99.90;;;;;;5116499;27;20079;-81
2022/11/28 19:31:20;;;;;;;1999.90;999.90;;;6.60;99.90;;;;;;5113803;28;20090;-75
2022/11/28 19:33:53;;;;;;;1999.90;999.90;;;6.70;99.90;;;;;;5136377;27;20036;-80
2022/11/28 19:36:18;;;;;;;1999.90;999.90;;;6.70;99.90;;;;;;5135428;27;20035;-77
2022/11/28 19:38:44;;;;;;;1999.90;999.90;;;6.70;99.90;;;;;;5135836;27;20036;-76
2022/11/28 19:41:18;;;;;;;1999.90;999.90;;;6.60;99.90;;;;;;5136000;27;20060;-76
2022/11/28 19:43:44;;;;;;;1999.90;999.90;;;6.60;99.90;;;;;;5136287;27;20028;-76
2022/11/28 19:46:10;;;;;;;1999.90;999.90;;;6.70;99.90;;;;;;5136305;27;20042;-76
2022/11/28 19:48:37;;;;;;;1999.90;999.90;;;6.70;99.90;;;;;;5134959;27;20034;-76
2022/11/28 19:51:04;;;;;;;1999.90;999.90;;;6.70;99.90;;;;;;5134433;27;20126;-76
2022/11/28 19:53:32;;;;;;;1999.90;999.90;;;6.70;99.90;;;;;;5129737;27;20401;-76
2022/11/28 19:56:06;;;;;;;1999.90;999.90;;;6.70;99.90;;;;;;5115027;27;20042;-76
2022/11/28 19:58:34;;;;;;;1999.90;999.90;;;6.70;99.90;;;;;;5115405;27;20032;-76
2022/11/28 20:01:26;;;;;;;1999.90;999.90;;;6.70;99.90;;;;;;5113809;28;20035;-82
2022/11/28 20:03:52;;;;;;;1999.90;999.90;;;6.70;99.90;;;;;;5112442;28;20063;-76
2022/11/28 20:06:21;;;;;;;1999.90;999.90;;;6.70;99.90;;;;;;5115716;27;20039;-74
2022/11/28 20:08:47;;;;;;;1999.90;999.90;;;6.70;99.90;;;;;;5115194;27;20043;-76
2022/11/28 20:11:18;;;;;;;1999.90;999.90;;;6.70;99.90;;;;;;5115102;27;20032;-76
2022/11/28 20:13:44;;;;;;;1999.90;999.90;;;6.70;99.90;;;;;;5115320;27;20040;-77
2022/11/28 20:16:13;;;;;;;1999.90;999.90;;;6.70;99.90;;;;;;5115549;27;20819;-77
2022/11/28 20:18:40;;;;;;;1999.90;999.90;;;6.70;99.90;;;;;;5106887;27;20041;-78
2022/11/28 20:21:17;;;;;;;1999.90;999.90;;;6.70;99.90;;;;;;5114642;27;20105;-79
2022/11/28 20:23:49;;;;;;;1999.90;999.90;;;6.60;99.90;;;;;;5113670;28;20028;-78
2022/11/28 20:26:16;;;;;;;1999.90;999.90;;;6.70;99.90;;;;;;5115532;27;20642;-78
2022/11/28 20:28:42;;;;;;;1999.90;999.90;;;6.70;99.90;;;;;;5133797;27;20071;-79
2022/11/28 20:31:23;;;;;;;1999.90;999.90;;;6.70;99.90;;;;;;5138674;27;20111;-78
2022/11/28 20:33:50;;;;;;;1999.90;999.90;;;6.70;99.90;;;;;;5138074;27;20106;-78
2022/11/28 20:36:18;;;;;;;1999.90;999.90;;;6.70;99.90;;;;;;5138917;27;20114;-79
2022/11/28 20:38:44;;;;;;;1999.90;999.90;;;6.70;99.90;;;;;;5138914;27;20036;-78
2022/11/28 20:41:11;;;;;;;1999.90;999.90;;;6.70;99.90;;;;;;5139130;27;20036;-79
2022/11/28 20:43:38;;;;;;;1999.90;999.90;;;6.70;99.90;;;;;;5138772;27;20085;-76
2022/11/28 20:46:06;;;;;;;1999.90;999.90;;;6.70;99.90;;;;;;5139201;27;20042;-77
2022/11/28 20:48:32;;;;;;;1999.90;999.90;;;6.70;99.90;;;;;;5116016;28;20494;-78
2022/11/28 20:50:58;;;;;;;1999.90;999.90;;;6.70;99.90;;;;;;5118126;27;20209;-78
2022/11/28 20:53:24;;;;;;;1999.90;999.90;;;6.70;99.90;;;;;;5117265;27;20118;-78
2022/11/28 20:55:57;;;;;;;1999.90;999.90;;;6.70;99.90;;;;;;5120716;28;20040;-78
2022/11/28 20:58:22;;;;;;;1999.90;999.90;;;6.70;99.90;;;;;;5118882;27;20606;-78
2022/11/28 21:00:48;;;;;;;1999.90;999.90;;;6.70;99.90;;;;;;5119631;27;20064;-78
2022/11/28 21:03:14;;;;;;;1999.90;999.90;;;6.70;99.90;;;;;;5117613;28;20028;-77
2022/11/28 21:05:39;;;;;;;1999.90;999.90;;;6.70;99.90;;;;;;5119263;27;20036;-77
2022/11/28 21:08:05;;;;;;;1999.90;999.90;;;6.70;99.90;;;;;;5116495;27;20051;-78
2022/11/28 21:10:32;;;;;;;1999.90;999.90;;;6.70;99.90;;;;;;5116796;27;20028;-77
2022/11/28 21:12:57;;;;;;;1999.90;999.90;;;6.70;99.90;;;;;;5119027;27;20062;-77
2022/11/28 21:15:24;;;;;;;1999.90;999.90;;;6.70;99.90;;;;;;5117518;28;20070;-78
2022/11/28 21:17:49;;;;;;;1999.90;999.90;;;6.70;99.90;;;;;;5119111;27;20032;-78
2022/11/28 21:20:15;;;;;;;1999.90;999.90;;;6.70;99.90;;;;;;5118557;27;20035;-78
2022/11/28 21:22:41;;;;;;;1999.90;999.90;;;6.70;99.90;;;;;;5117154;28;20043;-78
2022/11/28 21:25:06;;;;;;;1999.90;999.90;;;6.70;99.90;;;;;;5117620;28;20028;-77
2022/11/28 21:27:34;;;;;;;1999.90;999.90;;;6.80;99.90;;;;;;5102835;22;20053;-79
2022/11/28 21:29:59;;;;;;;1999.90;999.90;;;6.80;99.90;;;;;;5084806;28;20029;-79
2022/11/28 21:32:25;;;;;;;1999.90;999.90;;;6.80;99.90;;;;;;5091472;28;20033;-79
2022/11/28 21:34:52;;;;;;;1999.90;999.90;;;6.80;99.90;;;;;;5086397;28;20401;-80
2022/11/28 21:37:17;;;;;;;1999.90;999.90;;;6.80;99.90;;;;;;5082658;28;20079;-79
2022/11/28 21:39:43;;;;;;;1999.90;999.90;;;6.80;99.90;;;;;;5081014;28;20059;-79
2022/11/28 21:42:08;;;;;;;1999.90;999.90;;;6.80;99.90;;;;;;5082379;28;20548;-79
2022/11/28 21:44:34;;;;;;;1999.90;999.90;;;6.80;99.90;;;;;;5080565;28;20032;-80
2022/11/28 21:46:59;;;;;;;1999.90;999.90;;;6.90;99.90;;;;;;5081510;28;20486;-80
2022/11/28 21:49:25;;;;;;;1999.90;999.90;;;6.80;99.90;;;;;;5078982;28;20534;-79
2022/11/28 21:51:50;;;;;;;1999.90;999.90;;;6.80;99.90;;;;;;5073421;28;20033;-80
2022/11/28 21:54:16;;;;;;;1999.90;999.90;;;6.80;99.90;;;;;;5073415;28;20073;-79
2022/11/28 21:56:42;;;;;;;1999.90;999.90;;;6.80;99.90;;;;;;5083075;28;20040;-79
2022/11/28 21:59:07;;;;;;;1999.90;999.90;;;6.80;99.90;;;;;;5082014;28;20044;-79
2022/11/28 22:01:33;;;;;;;1999.90;999.90;;;6.80;99.90;;;;;;5082162;28;20041;-79
2022/11/28 22:03:59;;;;;;;1999.90;999.90;;;6.80;99.90;;;;;;5074511;28;20466;-81
2022/11/28 22:06:25;;;;;;;1999.90;999.90;;;6.80;99.90;;;;;;5086043;28;20039;-81
2022/11/28 22:08:52;;;;;;;1999.90;999.90;;;6.80;99.90;;;;;;5091067;28;20085;-80
2022/11/28 22:11:19;;;;;;;1999.90;999.90;;;6.80;99.90;;;;;;5062507;28;20544;-81
2022/11/28 22:13:45;;;;;;;1999.90;999.90;;;6.80;99.90;;;;;;5060281;28;20035;-82
2022/11/28 22:16:18;;;;;;;1999.90;999.90;;;6.80;99.90;;;;;;5058965;28;20045;-82
2022/11/28 22:18:45;;;;;;;1999.90;999.90;;;6.80;99.90;;;;;;5059858;28;20022;-81
2022/11/28 22:21:14;;;;;;;1999.90;999.90;;;6.80;99.90;;;;;;5060763;28;20048;-80
2022/11/28 22:23:40;;;;;;;1999.90;999.90;;;6.70;99.90;;;;;;5062712;28;20112;-80
2022/11/28 22:26:07;;;;;;;1999.90;999.90;;;6.70;99.90;;;;;;5063166;28;20479;-80
2022/11/28 22:28:34;;;;;;;1999.90;999.90;;;6.80;99.90;;;;;;5060037;28;20471;-80
2022/11/28 22:31:06;;;;;;;1999.90;999.90;;;6.70;99.90;;;;;;5062151;28;20045;-80
2022/11/28 22:33:32;;;;;;;1999.90;999.90;;;6.70;99.90;;;;;;5062375;28;20036;-80
2022/11/28 22:36:14;;;;;;;1999.90;999.90;;;6.70;99.90;;;;;;5062789;28;20880;-80
2022/11/28 22:38:41;;;;;;;1999.90;999.90;;;6.70;99.90;;;;;;5065334;28;20101;-80
2022/11/28 22:41:07;;;;;;;1999.90;999.90;;;6.70;99.90;;;;;;5063775;28;20046;-80
2022/11/28 22:43:33;;;;;;;1999.90;999.90;;;6.70;99.90;;;;;;5064299;28;20060;-80
2022/11/28 22:45:58;;;;;;;1999.90;999.90;;;6.70;99.90;;;;;;5065328;28;20116;-79
2022/11/28 22:48:24;;;;;;;1999.90;999.90;;;6.70;99.90;;;;;;5065699;28;20056;-79
2022/11/28 22:50:50;;;;;;;1999.90;999.90;;;6.70;99.90;;;;;;5062546;28;20036;-80
2022/11/28 22:53:16;;;;;;;1999.90;999.90;;;6.70;99.90;;;;;;5066632;28;20049;-79
2022/11/28 22:55:41;;;;;;;1999.90;999.90;;;6.70;99.90;;;;;;5064716;28;20044;-80
2022/11/28 22:58:07;;;;;;;1999.90;999.90;;;6.70;99.90;;;;;;5066069;28;20394;-80
